createdAt,value
2019-02-09T00:01:07.489Z,4.50
2019-02-09T00:03:37.266Z,4.93
2019-02-09T00:06:07.498Z,4.73
2019-02-09T00:08:37.352Z,4.97
2019-02-09T00:11:07.068Z,4.57
2019-02-09T00:13:36.873Z,5.37
2019-02-09T00:16:06.725Z,4.80
2019-02-09T00:18:36.432Z,5.20
2019-02-09T00:21:06.329Z,4.87
2019-02-09T00:23:36.101Z,4.70
2019-02-09T00:26:05.895Z,5.20
2019-02-09T00:28:35.739Z,4.67
2019-02-09T00:31:05.614Z,5.00
2019-02-09T00:33:35.395Z,4.60
2019-02-09T00:36:05.379Z,5.10
2019-02-09T00:38:36.101Z,4.90
2019-02-09T00:41:05.966Z,5.20
2019-02-09T00:43:41.795Z,4.77
2019-02-09T00:46:11.582Z,4.67
2019-02-09T00:48:41.288Z,4.67
2019-02-09T00:51:10.977Z,4.60
2019-02-09T00:53:41.860Z,4.67
2019-02-09T00:56:11.562Z,5.23
2019-02-09T00:58:41.336Z,4.87
2019-02-09T01:01:11.071Z,4.50
2019-02-09T01:03:40.772Z,4.50
2019-02-09T01:06:10.552Z,4.73
2019-02-09T01:08:40.417Z,5.27
2019-02-09T01:11:10.779Z,4.60
2019-02-09T01:13:40.949Z,5.73
2019-02-09T01:16:10.669Z,4.13
2019-02-09T01:18:40.318Z,4.63
2019-02-09T01:21:10.214Z,4.17
2019-02-09T01:23:39.953Z,3.87
2019-02-09T01:26:09.608Z,4.37
2019-02-09T01:28:39.289Z,3.80
2019-02-09T01:31:09.148Z,4.57
2019-02-09T01:33:38.831Z,4.20
2019-02-09T01:36:08.537Z,4.40
2019-02-09T01:38:38.273Z,4.10
2019-02-09T01:41:08.028Z,3.77
2019-02-09T01:43:37.891Z,4.50
2019-02-09T01:46:07.735Z,3.70
2019-02-09T01:48:37.516Z,4.17
2019-02-09T01:51:07.214Z,4.00
2019-02-09T01:53:36.903Z,5.00
2019-02-09T01:56:06.663Z,4.27
2019-02-09T01:58:36.398Z,3.77
2019-02-09T02:01:06.253Z,4.63
2019-02-09T02:03:35.954Z,4.30
2019-02-09T02:06:07.911Z,4.47
2019-02-09T02:08:37.583Z,4.67
2019-02-09T02:11:07.345Z,4.70
2019-02-09T02:13:37.151Z,4.60
2019-02-09T02:16:08.846Z,4.10
2019-02-09T02:18:38.543Z,4.70
2019-02-09T02:21:08.348Z,4.87
2019-02-09T02:23:38.108Z,4.37
2019-02-09T02:26:07.864Z,4.37
2019-02-09T02:28:37.560Z,4.43
2019-02-09T02:31:07.252Z,4.90
2019-02-09T02:33:36.934Z,4.67
2019-02-09T02:36:06.648Z,5.00
2019-02-09T02:38:36.300Z,5.10
2019-02-09T02:41:05.990Z,5.20
2019-02-09T02:43:35.674Z,5.30
2019-02-09T02:46:05.473Z,4.70
2019-02-09T02:48:35.164Z,5.37
2019-02-09T02:51:05.486Z,4.93
2019-02-09T02:53:35.163Z,5.20
2019-02-09T02:56:05.179Z,5.00
2019-02-09T02:58:34.853Z,5.33
2019-02-09T03:01:04.668Z,5.13
2019-02-09T03:03:34.358Z,5.70
2019-02-09T03:06:04.218Z,4.83
2019-02-09T03:08:33.883Z,5.37
2019-02-09T03:11:04.286Z,5.00
2019-02-09T03:13:34.455Z,5.27
2019-02-09T03:16:04.451Z,5.37
2019-02-09T03:18:34.330Z,5.13
2019-02-09T03:21:04.181Z,5.70
2019-02-09T03:23:34.150Z,6.10
2019-02-09T03:26:05.312Z,6.70
2019-02-09T03:28:35.003Z,5.93
2019-02-09T03:31:04.783Z,5.60
2019-02-09T03:33:34.638Z,5.60
2019-02-09T03:36:05.637Z,5.93
2019-02-09T03:38:35.338Z,5.93
2019-02-09T03:41:05.141Z,4.93
2019-02-09T03:43:34.813Z,5.97
2019-02-09T03:46:05.221Z,6.57
2019-02-09T03:48:36.105Z,5.80
2019-02-09T03:51:05.872Z,6.83
2019-02-09T03:53:35.576Z,6.13
2019-02-09T03:56:05.347Z,5.83
2019-02-09T03:58:35.115Z,6.37
2019-02-09T04:01:05.527Z,5.70
2019-02-09T04:03:35.250Z,6.60
2019-02-09T04:06:04.966Z,5.87
2019-02-09T04:08:34.643Z,5.97
2019-02-09T04:11:04.462Z,5.80
2019-02-09T04:13:34.167Z,5.33
2019-02-09T04:16:03.938Z,5.73
2019-02-09T04:18:33.671Z,6.07
2019-02-09T04:21:03.344Z,6.13
2019-02-09T04:23:33.068Z,5.77
2019-02-09T04:26:02.901Z,6.10
2019-02-09T04:28:32.606Z,5.50
2019-02-09T04:31:06.214Z,5.67
2019-02-09T04:33:33.783Z,5.30
2019-02-09T04:36:03.634Z,5.73
2019-02-09T04:38:33.348Z,5.87
2019-02-09T04:41:03.035Z,6.47
2019-02-09T04:43:32.780Z,6.20
2019-02-09T04:46:02.466Z,6.60
2019-02-09T04:48:32.150Z,6.07
2019-02-09T04:51:01.875Z,5.90
2019-02-09T04:53:31.545Z,6.10
2019-02-09T04:56:01.212Z,6.03
2019-02-09T04:58:30.919Z,5.90
2019-02-09T05:01:00.603Z,6.73
2019-02-09T05:03:30.323Z,6.60
2019-02-09T05:06:00.139Z,6.57
2019-02-09T05:08:29.844Z,6.40
2019-02-09T05:10:59.593Z,6.93
2019-02-09T05:13:29.363Z,6.60
2019-02-09T05:16:04.730Z,6.37
2019-02-09T05:18:34.407Z,6.00
2019-02-09T05:21:04.151Z,6.30
2019-02-09T05:23:33.863Z,6.10
2019-02-09T05:26:03.719Z,6.03
2019-02-09T05:28:33.484Z,6.63
2019-02-09T05:31:03.169Z,6.33
2019-02-09T05:33:32.903Z,6.40
2019-02-09T05:36:02.604Z,6.10
2019-02-09T05:38:32.341Z,6.30
2019-02-09T05:41:02.021Z,6.43
2019-02-09T05:43:31.710Z,5.97
2019-02-09T05:46:01.378Z,6.13
2019-02-09T05:48:31.119Z,5.60
2019-02-09T05:51:00.873Z,5.50
2019-02-09T05:53:30.528Z,4.37
2019-02-09T05:56:00.207Z,4.73
2019-02-09T05:58:29.909Z,4.20
2019-02-09T06:00:59.636Z,3.87
2019-02-09T06:03:29.377Z,3.60
2019-02-09T06:05:59.082Z,2.83
2019-02-09T06:08:28.775Z,3.17
2019-02-09T06:10:58.474Z,3.53
2019-02-09T06:13:28.201Z,3.23
2019-02-09T06:15:57.883Z,2.63
2019-02-09T06:18:27.582Z,2.60
2019-02-09T06:20:57.279Z,2.10
2019-02-09T06:23:26.979Z,2.20
2019-02-09T06:25:56.702Z,2.20
2019-02-09T06:28:26.492Z,2.50
2019-02-09T06:30:56.179Z,2.23
2019-02-09T06:33:25.853Z,2.13
2019-02-09T06:35:55.544Z,1.93
2019-02-09T06:38:25.387Z,2.50
2019-02-09T06:40:55.099Z,2.33
2019-02-09T06:43:24.801Z,2.60
2019-02-09T06:45:54.509Z,2.17
2019-02-09T06:48:26.477Z,3.13
2019-02-09T06:50:57.555Z,2.43
2019-02-09T06:53:27.293Z,2.37
2019-02-09T06:55:56.955Z,2.27
2019-02-09T06:58:26.767Z,2.17
2019-02-09T07:00:56.442Z,2.40
2019-02-09T07:03:26.148Z,2.33
2019-02-09T07:05:55.848Z,1.93
2019-02-09T07:08:25.494Z,2.40
2019-02-09T07:10:55.205Z,2.50
2019-02-09T07:13:24.869Z,2.92
2019-02-09T07:15:54.735Z,2.40
2019-02-09T07:18:24.417Z,2.33
2019-02-09T07:20:54.169Z,2.40
2019-02-09T07:23:24.007Z,2.50
2019-02-09T07:25:53.746Z,2.67
2019-02-09T07:28:23.496Z,2.70
2019-02-09T07:30:53.323Z,3.20
2019-02-09T07:33:23.077Z,3.63
2019-02-09T07:35:52.935Z,3.30
2019-02-09T07:38:22.667Z,3.60
2019-02-09T07:40:52.378Z,3.30
2019-02-09T07:43:22.156Z,3.57
2019-02-09T07:45:51.959Z,4.27
2019-02-09T07:48:21.735Z,4.80
2019-02-09T07:50:51.469Z,4.27
2019-02-09T07:53:21.168Z,4.40
2019-02-09T07:55:50.868Z,4.40
2019-02-09T07:58:20.573Z,4.37
2019-02-09T08:00:50.359Z,4.90
2019-02-09T08:03:20.058Z,4.37
2019-02-09T08:05:49.711Z,4.03
2019-02-09T08:08:19.449Z,4.33
2019-02-09T08:10:49.260Z,4.83
2019-02-09T08:13:18.970Z,4.17
2019-02-09T08:15:48.743Z,4.20
2019-02-09T08:18:18.413Z,4.47
2019-02-09T08:20:48.318Z,4.10
2019-02-09T08:23:18.108Z,3.93
2019-02-09T08:25:48.067Z,4.00
2019-02-09T08:28:17.936Z,4.17
2019-02-09T08:30:49.455Z,4.17
2019-02-09T08:33:19.201Z,4.30
2019-02-09T08:35:49.004Z,4.40
2019-02-09T08:38:21.784Z,5.00
2019-02-09T08:40:51.713Z,4.37
2019-02-09T08:43:21.410Z,5.03
2019-02-09T08:45:51.096Z,5.87
2019-02-09T08:48:20.916Z,4.73
2019-02-09T08:50:53.671Z,5.03
2019-02-09T08:53:23.356Z,5.47
2019-02-09T08:55:53.077Z,4.30
2019-02-09T08:58:22.747Z,3.80
2019-02-09T09:00:52.648Z,4.70
2019-02-09T09:03:22.338Z,3.40
2019-02-09T09:05:52.065Z,3.27
2019-02-09T09:08:21.739Z,4.27
2019-02-09T09:10:51.427Z,3.53
2019-02-09T09:13:21.082Z,3.83
2019-02-09T09:15:56.401Z,3.90
2019-02-09T09:18:26.100Z,3.10
2019-02-09T09:20:59.070Z,4.10
2019-02-09T09:23:28.731Z,2.77
2019-02-09T09:25:58.420Z,3.07
2019-02-09T09:28:28.168Z,3.50
2019-02-09T09:30:57.840Z,2.47
2019-02-09T09:33:27.524Z,2.67
2019-02-09T09:35:57.248Z,3.23
2019-02-09T09:38:27.098Z,3.47
2019-02-09T09:40:56.924Z,3.87
2019-02-09T09:43:26.682Z,2.93
2019-02-09T09:45:56.489Z,2.63
2019-02-09T09:48:26.386Z,2.77
2019-02-09T09:50:56.322Z,2.50
2019-02-09T09:53:26.496Z,2.80
2019-02-09T09:55:58.505Z,3.17
2019-02-09T09:58:28.273Z,3.03
2019-02-09T10:00:58.002Z,2.43
2019-02-09T10:03:27.684Z,2.57
2019-02-09T10:05:57.468Z,2.90
2019-02-09T10:08:27.490Z,2.83
2019-02-09T10:10:57.205Z,2.43
2019-02-09T10:13:27.074Z,2.90
2019-02-09T10:15:56.810Z,3.37
2019-02-09T10:18:26.656Z,2.93
2019-02-09T10:20:56.748Z,3.10
2019-02-09T10:23:26.684Z,3.10
2019-02-09T10:25:56.406Z,2.70
2019-02-09T10:28:26.590Z,3.17
2019-02-09T10:30:56.367Z,2.93
2019-02-09T10:33:26.166Z,2.97
2019-02-09T10:35:55.912Z,2.50
2019-02-09T10:38:25.624Z,3.33
2019-02-09T10:40:55.501Z,2.57
2019-02-09T10:43:25.270Z,2.70
2019-02-09T10:45:55.053Z,2.97
2019-02-09T10:48:24.790Z,2.63
2019-02-09T10:50:54.824Z,3.50
2019-02-09T10:53:24.766Z,3.50
2019-02-09T10:55:54.481Z,3.10
2019-02-09T10:58:24.209Z,3.67
2019-02-09T11:01:00.394Z,3.33
2019-02-09T11:03:31.798Z,2.80
2019-02-09T11:06:01.847Z,2.70
2019-02-09T11:08:31.553Z,3.60
2019-02-09T11:11:01.232Z,3.10
2019-02-09T11:13:31.553Z,3.03
2019-02-09T11:16:01.643Z,2.80
2019-02-09T11:18:31.331Z,3.60
2019-02-09T11:21:01.080Z,3.70
2019-02-09T11:23:30.931Z,2.97
2019-02-09T11:26:00.825Z,2.90
2019-02-09T11:28:30.631Z,3.10
2019-02-09T11:31:00.443Z,3.20
2019-02-09T11:33:30.237Z,2.57
2019-02-09T11:36:00.125Z,3.67
2019-02-09T11:38:29.957Z,3.03
2019-02-09T11:40:59.652Z,2.90
2019-02-09T11:43:29.374Z,2.90
2019-02-09T11:45:59.084Z,3.70
2019-02-09T11:48:28.832Z,3.20
2019-02-09T11:50:59.103Z,3.40
2019-02-09T11:53:28.787Z,2.60
2019-02-09T11:55:58.496Z,2.87
2019-02-09T11:58:28.262Z,3.37
2019-02-09T12:00:58.065Z,3.13
2019-02-09T12:03:29.165Z,3.10
2019-02-09T12:05:58.804Z,3.37
2019-02-09T12:08:28.700Z,3.37
2019-02-09T12:10:58.545Z,2.93
2019-02-09T12:13:28.311Z,3.30
2019-02-09T12:15:58.024Z,3.67
2019-02-09T12:18:28.108Z,2.77
2019-02-09T12:20:57.786Z,3.43
2019-02-09T12:23:27.591Z,2.83
2019-02-09T12:25:57.312Z,3.63
2019-02-09T12:28:27.238Z,4.37
2019-02-09T12:30:57.154Z,3.80
2019-02-09T12:33:27.258Z,4.67
2019-02-09T12:35:57.082Z,3.60
2019-02-09T12:38:26.930Z,3.60
2019-02-09T12:40:56.767Z,3.87
2019-02-09T12:43:26.710Z,3.60
2019-02-09T12:45:56.548Z,3.50
2019-02-09T12:48:26.294Z,3.50
2019-02-09T12:50:56.036Z,3.40
2019-02-09T12:53:25.693Z,3.60
2019-02-09T12:55:55.411Z,3.63
2019-02-09T12:58:25.115Z,3.97
2019-02-09T13:00:54.852Z,3.90
2019-02-09T13:03:31.302Z,4.23
2019-02-09T13:05:57.634Z,3.83
2019-02-09T13:08:27.372Z,3.50
2019-02-09T13:10:57.085Z,3.37
2019-02-09T13:13:26.763Z,3.97
2019-02-09T13:15:56.526Z,4.03
2019-02-09T13:18:26.378Z,4.83
2019-02-09T13:20:56.190Z,4.07
2019-02-09T13:23:26.299Z,3.53
2019-02-09T13:25:58.183Z,3.67
2019-02-09T13:28:27.900Z,3.80
2019-02-09T13:30:57.627Z,3.50
2019-02-09T13:33:27.565Z,3.57
2019-02-09T13:35:57.293Z,3.73
2019-02-09T13:38:27.240Z,3.87
2019-02-09T13:40:58.945Z,4.07
2019-02-09T13:43:28.858Z,4.03
2019-02-09T13:45:59.074Z,4.57
2019-02-09T13:48:28.792Z,4.67
2019-02-09T13:50:58.555Z,4.17
2019-02-09T13:53:28.432Z,3.73
2019-02-09T13:55:58.101Z,4.33
2019-02-09T13:58:27.887Z,4.20
2019-02-09T14:00:57.701Z,3.70
2019-02-09T14:03:27.571Z,3.63
2019-02-09T14:05:57.356Z,3.17
2019-02-09T14:08:27.087Z,3.53
2019-02-09T14:10:56.889Z,4.10
2019-02-09T14:13:26.612Z,3.37
2019-02-09T14:15:56.267Z,3.87
2019-02-09T14:18:25.955Z,3.73
2019-02-09T14:20:56.031Z,3.83
2019-02-09T14:23:25.787Z,4.57
2019-02-09T14:25:55.572Z,3.83
2019-02-09T14:28:27.038Z,4.73
2019-02-09T14:30:56.850Z,4.27
2019-02-09T14:33:28.035Z,3.80
2019-02-09T14:35:57.773Z,3.93
2019-02-09T14:38:27.630Z,3.80
2019-02-09T14:40:57.425Z,3.67
2019-02-09T14:43:27.253Z,3.73
2019-02-09T14:45:57.043Z,3.53
2019-02-09T14:48:26.882Z,4.23
2019-02-09T14:50:56.633Z,3.30
2019-02-09T14:53:26.390Z,4.00
2019-02-09T14:55:56.122Z,3.40
2019-02-09T14:58:25.822Z,3.63
2019-02-09T15:00:55.737Z,3.60
2019-02-09T15:03:28.947Z,2.90
2019-02-09T15:05:56.989Z,3.43
2019-02-09T15:08:26.792Z,3.63
2019-02-09T15:10:56.777Z,3.67
2019-02-09T15:13:26.491Z,3.30
2019-02-09T15:16:02.189Z,3.00
2019-02-09T15:18:31.875Z,3.67
2019-02-09T15:21:10.489Z,3.80
2019-02-09T15:23:40.271Z,3.77
2019-02-09T15:26:10.311Z,3.57
2019-02-09T15:28:40.115Z,3.20
2019-02-09T15:31:10.102Z,3.60
2019-02-09T15:33:39.968Z,4.07
2019-02-09T15:36:09.842Z,4.07
2019-02-09T15:38:39.782Z,3.50
2019-02-09T15:41:09.502Z,4.07
2019-02-09T15:43:39.217Z,4.20
2019-02-09T15:46:09.222Z,4.07
2019-02-09T15:48:39.215Z,3.20
2019-02-09T15:51:09.101Z,4.03
2019-02-09T15:53:38.784Z,3.90
2019-02-09T15:56:08.549Z,2.87
2019-02-09T15:58:38.389Z,3.60
2019-02-09T16:01:08.163Z,4.23
2019-02-09T16:03:37.872Z,4.07
2019-02-09T16:06:07.531Z,3.43
2019-02-09T16:08:37.320Z,4.20
2019-02-09T16:11:07.030Z,3.70
2019-02-09T16:13:36.789Z,3.90
2019-02-09T16:16:06.816Z,3.30
2019-02-09T16:18:36.598Z,4.47
2019-02-09T16:21:06.410Z,4.87
2019-02-09T16:23:36.158Z,4.93
2019-02-09T16:26:05.921Z,4.40
2019-02-09T16:28:35.591Z,3.40
2019-02-09T16:31:05.388Z,3.83
2019-02-09T16:33:35.239Z,4.17
2019-02-09T16:36:07.552Z,4.47
2019-02-09T16:38:37.256Z,3.90
2019-02-09T16:41:06.963Z,4.10
2019-02-09T16:43:36.694Z,3.63
2019-02-09T16:46:06.547Z,3.73
2019-02-09T16:48:36.257Z,3.97
2019-02-09T16:51:06.047Z,4.43
2019-02-09T16:53:35.815Z,3.30
2019-02-09T16:56:05.605Z,4.03
2019-02-09T16:58:35.338Z,4.03
2019-02-09T17:01:05.554Z,3.77
2019-02-09T17:03:35.261Z,4.40
2019-02-09T17:06:05.204Z,4.40
2019-02-09T17:08:34.929Z,3.50
2019-02-09T17:11:04.859Z,3.90
2019-02-09T17:13:34.556Z,3.30
2019-02-09T17:16:04.667Z,3.47
2019-02-09T17:18:34.361Z,3.40
2019-02-09T17:21:04.314Z,4.30
2019-02-09T17:23:34.218Z,4.03
2019-02-09T17:26:04.118Z,3.73
2019-02-09T17:28:33.884Z,3.60
2019-02-09T17:31:03.677Z,4.07
2019-02-09T17:33:33.528Z,4.43
2019-02-09T17:36:03.261Z,4.17
2019-02-09T17:38:32.987Z,5.17
2019-02-09T17:41:02.779Z,3.77
2019-02-09T17:43:32.559Z,5.80
2019-02-09T17:46:08.007Z,3.83
2019-02-09T17:48:37.743Z,4.20
2019-02-09T17:51:07.427Z,4.30
2019-02-09T17:53:37.105Z,5.30
2019-02-09T17:56:06.860Z,4.00
2019-02-09T17:58:36.698Z,3.73
2019-02-09T18:01:08.000Z,4.73
2019-02-09T18:03:37.785Z,4.30
2019-02-09T18:06:07.490Z,4.17
2019-02-09T18:08:37.187Z,4.43
2019-02-09T18:11:06.966Z,4.10
2019-02-09T18:13:36.707Z,4.13
2019-02-09T18:16:06.514Z,4.30
2019-02-09T18:18:36.167Z,5.20
2019-02-09T18:21:06.010Z,4.80
2019-02-09T18:23:35.765Z,3.90
2019-02-09T18:26:05.554Z,3.70
2019-02-09T18:28:35.246Z,5.13
2019-02-09T18:31:05.261Z,4.37
2019-02-09T18:33:34.986Z,4.10
2019-02-09T18:36:05.303Z,5.07
2019-02-09T18:38:34.998Z,5.00
2019-02-09T18:41:04.958Z,3.80
2019-02-09T18:43:34.645Z,4.37
2019-02-09T18:46:04.776Z,4.77
2019-02-09T18:48:34.485Z,4.27
2019-02-09T18:51:04.282Z,4.80
2019-02-09T18:53:33.970Z,4.97
2019-02-09T18:56:03.729Z,3.90
2019-02-09T18:58:33.415Z,4.23
2019-02-09T19:01:04.137Z,4.03
2019-02-09T19:03:33.831Z,5.13
2019-02-09T19:06:03.511Z,3.17
2019-02-09T19:08:33.190Z,4.23
2019-02-09T19:11:02.945Z,4.03
2019-02-09T19:13:32.681Z,4.07
2019-02-09T19:16:02.447Z,4.30
2019-02-09T19:18:32.125Z,4.77
2019-02-09T19:21:01.990Z,4.47
2019-02-09T19:23:31.853Z,3.70
2019-02-09T19:26:01.602Z,3.90
2019-02-09T19:28:31.271Z,3.97
2019-02-09T19:31:00.993Z,4.30
2019-02-09T19:33:30.739Z,3.63
2019-02-09T19:36:00.502Z,4.30
2019-02-09T19:38:30.232Z,3.77
2019-02-09T19:40:59.939Z,4.13
2019-02-09T19:43:29.749Z,4.23
2019-02-09T19:46:05.706Z,4.67
2019-02-09T19:48:35.746Z,4.03
2019-02-09T19:51:05.618Z,3.83
2019-02-09T19:53:35.337Z,3.40
2019-02-09T19:56:05.313Z,3.37
2019-02-09T19:58:35.001Z,4.40
2019-02-09T20:01:04.814Z,4.03
2019-02-09T20:03:34.527Z,4.37
2019-02-09T20:06:04.385Z,4.70
2019-02-09T20:08:34.054Z,4.37
2019-02-09T20:11:04.413Z,3.80
2019-02-09T20:13:34.222Z,3.57
2019-02-09T20:16:04.392Z,4.83
2019-02-09T20:18:34.366Z,4.77
2019-02-09T20:21:04.294Z,4.63
2019-02-09T20:23:34.489Z,3.83
2019-02-09T20:26:04.233Z,4.30
2019-02-09T20:28:34.077Z,5.03
2019-02-09T20:31:03.828Z,4.80
2019-02-09T20:33:34.874Z,5.27
2019-02-09T20:36:05.100Z,4.30
2019-02-09T20:38:34.767Z,4.43
2019-02-09T20:41:05.298Z,3.80
2019-02-09T20:43:35.283Z,3.40
2019-02-09T20:46:05.221Z,3.83
2019-02-09T20:48:34.991Z,4.50
2019-02-09T20:51:05.293Z,3.83
2019-02-09T20:53:34.976Z,3.67
2019-02-09T20:56:05.077Z,4.10
2019-02-09T20:58:34.952Z,4.07
2019-02-09T21:01:04.872Z,4.67
2019-02-09T21:03:34.734Z,4.03
2019-02-09T21:06:04.490Z,4.10
2019-02-09T21:08:34.391Z,3.70
2019-02-09T21:11:04.105Z,3.47
2019-02-09T21:13:34.883Z,4.63
2019-02-09T21:16:04.720Z,3.70
2019-02-09T21:18:34.428Z,4.33
2019-02-09T21:21:04.451Z,4.23
2019-02-09T21:23:34.292Z,5.10
2019-02-09T21:26:04.114Z,3.23
2019-02-09T21:28:33.926Z,3.73
2019-02-09T21:31:03.815Z,3.53
2019-02-09T21:33:34.446Z,3.50
2019-02-09T21:36:04.414Z,4.13
2019-02-09T21:38:34.103Z,3.87
2019-02-09T21:41:03.879Z,4.10
2019-02-09T21:43:34.004Z,3.43
2019-02-09T21:46:03.869Z,4.03
2019-02-09T21:48:33.787Z,3.77
2019-02-09T21:51:03.622Z,3.73
2019-02-09T21:53:33.393Z,3.63
2019-02-09T21:56:03.219Z,3.23
2019-02-09T21:58:32.907Z,3.63
2019-02-09T22:01:02.593Z,4.10
2019-02-09T22:03:32.439Z,4.63
2019-02-09T22:06:02.451Z,4.27
2019-02-09T22:08:32.371Z,3.67
2019-02-09T22:11:02.368Z,4.27
2019-02-09T22:13:32.083Z,3.77
2019-02-09T22:16:01.912Z,3.70
2019-02-09T22:18:31.907Z,3.70
2019-02-09T22:21:01.993Z,4.00
2019-02-09T22:23:32.041Z,3.20
2019-02-09T22:26:02.037Z,4.10
2019-02-09T22:28:32.109Z,4.07
2019-02-09T22:31:01.920Z,3.67
2019-02-09T22:33:31.601Z,3.70
2019-02-09T22:36:01.431Z,3.93
2019-02-09T22:38:31.313Z,4.70
2019-02-09T22:41:01.085Z,3.47
2019-02-09T22:43:30.860Z,4.33
2019-02-09T22:46:00.573Z,4.50
2019-02-09T22:48:30.545Z,4.40
2019-02-09T22:51:00.395Z,4.17
2019-02-09T22:53:30.164Z,3.63
2019-02-09T22:55:59.908Z,4.50
2019-02-09T22:58:29.615Z,4.03
2019-02-09T23:01:17.211Z,3.33
2019-02-09T23:03:49.973Z,3.40
2019-02-09T23:06:43.623Z,4.07
2019-02-09T23:09:15.148Z,3.33
2019-02-09T23:11:44.851Z,3.77
2019-02-09T23:14:14.568Z,3.73
2019-02-09T23:16:44.335Z,4.57
2019-02-09T23:19:14.042Z,3.23
2019-02-09T23:21:43.690Z,4.87
2019-02-09T23:24:13.451Z,4.00
2019-02-09T23:26:43.186Z,4.72
2019-02-09T23:29:13.015Z,3.67
2019-02-09T23:31:42.683Z,3.23
2019-02-09T23:34:12.434Z,4.47
2019-02-09T23:36:42.252Z,4.77
2019-02-09T23:39:11.934Z,3.70
2019-02-09T23:41:41.626Z,4.53
2019-02-09T23:44:11.383Z,4.40
2019-02-09T23:46:41.194Z,4.80
2019-02-09T23:49:10.964Z,4.27
2019-02-09T23:51:40.650Z,3.80
2019-02-09T23:54:10.492Z,4.30
2019-02-09T23:56:40.191Z,4.30
2019-02-09T23:59:09.905Z,3.53
